PILOTS ONLINE: 523    ATC ONLINE: 95

KLTS

Altus Air Force Base

Location

City Altus
Country  United States
Latitude 34° 40' 1" N
Longitude 99° 16' 0" W
Elevation 1382 ft
Type Large Airport

Map

Weather

METAR
2014/09/19 17:43
KLTS 191743Z 14007KT 10SM FEW032 SCT042 29/20 A2999 RMK AO2A $
TAF
2014/09/19 17:10
TAF KLTS 1917/2023 15009KT 9999 SCT028 BKN036 QNH2989INS 
      BECMG 1918/1919 13010G15KT 9999 FEW250 QNH2989INS 
      BECMG 2002/2003 13006KT 9999 BKN030 BKN150 QNH2987INS 
      BECMG 2011/2012 13009KT 8000 BR OVC015 QNH2985INS 
      BECMG 2015/2016 14009KT 9999 NSW SCT020 BKN120 QNH2983INS 
      BECMG 2018/2019 15009KT 9999 SCT050 BKN150 QNH2980INS 
      BECMG 2021/2022 15009KT 8000 -SHRA BKN030 QNH2980INS TX33/1921Z TN19/2012Z

Runways

17/35 3501 ft / 94 ft
174/354 3501 ft / 94 ft
17L/35R 9000 ft / 150 ft
17R/35L 13440 ft / 150 ft

Outbound flights

Callsign Flying to Pilot ATD/STD ETA Aircraft

Inbound flights

Callsign Flying from Pilot ATD ETA Aircraft